Resistencia, Argentina
Current Conditions -  °F | °C
As of 6:00 PM on Friday 26 Dec 2014 (Local Time) from SARE Reporting Station
Scattered Clouds Scattered Clouds  
Wind Chill: 95°   Ceiling: Unl
Heat Index: 107°   Visibility: 6mi
Dew Point: 75°   Wind: 12mph
Humidity: 53%   Direction: 20°NNE
Pressure: 29.71"   Gusts: NA
Location:  27.46°S, 58.99°W
Report Text: SARE 262100Z 02010KT 9999 SCT035TCU 35/24 Q1006
Loading
Personal Weather Stations






























Interactive Weather Map New forecast layout! Learn more

10-Day Weather Forecast

Advertisements
Track Severe Weather on mobile